sensor_id;sensor_type;location;lat;lon;timestamp;temperature;humidity
9640;DHT22;51745;50.872;4.732;2022-07-29T00:02:00;18.50;99.90
9640;DHT22;51745;50.872;4.732;2022-07-29T00:04:49;18.40;99.90
9640;DHT22;51745;50.872;4.732;2022-07-29T00:07:37;18.00;99.90
9640;DHT22;51745;50.872;4.732;2022-07-29T00:10:28;18.30;99.90
9640;DHT22;51745;50.872;4.732;2022-07-29T00:13:15;16.50;99.90
9640;DHT22;51745;50.872;4.732;2022-07-29T00:16:17;18.40;99.90
9640;DHT22;51745;50.872;4.732;2022-07-29T00:19:06;18.30;99.90
9640;DHT22;51745;50.872;4.732;2022-07-29T00:21:55;18.30;99.90
9640;DHT22;51745;50.872;4.732;2022-07-29T00:24:44;18.30;99.90
9640;DHT22;51745;50.872;4.732;2022-07-29T00:27:32;18.30;99.90
9640;DHT22;51745;50.872;4.732;2022-07-29T00:30:19;18.10;99.90
9640;DHT22;51745;50.872;4.732;2022-07-29T00:33:07;18.10;99.90
9640;DHT22;51745;50.872;4.732;2022-07-29T00:35:59;17.90;99.90
9640;DHT22;51745;50.872;4.732;2022-07-29T00:38:49;18.00;99.90
9640;DHT22;51745;50.872;4.732;2022-07-29T00:41:37;17.90;99.90
9640;DHT22;51745;50.872;4.732;2022-07-29T00:44:25;17.90;99.90
9640;DHT22;51745;50.872;4.732;2022-07-29T00:47:13;17.80;99.90
9640;DHT22;51745;50.872;4.732;2022-07-29T00:50:00;17.70;99.90
9640;DHT22;51745;50.872;4.732;2022-07-29T00:52:49;17.70;99.90
9640;DHT22;51745;50.872;4.732;2022-07-29T00:55:38;17.70;99.90
9640;DHT22;51745;50.872;4.732;2022-07-29T00:58:25;17.60;99.90
9640;DHT22;51745;50.872;4.732;2022-07-29T01:01:13;17.60;99.90
9640;DHT22;51745;50.872;4.732;2022-07-29T01:04:01;18.90;99.90
9640;DHT22;51745;50.872;4.732;2022-07-29T01:06:50;17.50;99.90
9640;DHT22;51745;50.872;4.732;2022-07-29T01:09:40;17.50;99.90
9640;DHT22;51745;50.872;4.732;2022-07-29T01:12:32;17.40;99.90
9640;DHT22;51745;50.872;4.732;2022-07-29T01:15:21;17.60;99.90
9640;DHT22;51745;50.872;4.732;2022-07-29T01:18:10;17.40;99.90
9640;DHT22;51745;50.872;4.732;2022-07-29T01:21:07;17.30;99.90
9640;DHT22;51745;50.872;4.732;2022-07-29T01:24:21;17.30;99.90
9640;DHT22;51745;50.872;4.732;2022-07-29T01:27:19;17.20;99.90
9640;DHT22;51745;50.872;4.732;2022-07-29T01:30:14;17.20;99.90
9640;DHT22;51745;50.872;4.732;2022-07-29T01:33:03;17.20;99.90
9640;DHT22;51745;50.872;4.732;2022-07-29T01:35:56;17.30;99.90
9640;DHT22;51745;50.872;4.732;2022-07-29T01:38:46;17.20;99.90
9640;DHT22;51745;50.872;4.732;2022-07-29T01:41:38;17.30;99.90
9640;DHT22;51745;50.872;4.732;2022-07-29T01:44:49;17.10;99.90
9640;DHT22;51745;50.872;4.732;2022-07-29T01:47:40;17.10;99.90
9640;DHT22;51745;50.872;4.732;2022-07-29T01:50:32;16.90;99.90
9640;DHT22;51745;50.872;4.732;2022-07-29T01:53:23;16.90;99.90
9640;DHT22;51745;50.872;4.732;2022-07-29T01:56:11;16.90;99.90
9640;DHT22;51745;50.872;4.732;2022-07-29T01:59:00;16.80;99.90
9640;DHT22;51745;50.872;4.732;2022-07-29T02:01:48;16.80;99.90
9640;DHT22;51745;50.872;4.732;2022-07-29T02:04:41;16.70;99.90
9640;DHT22;51745;50.872;4.732;2022-07-29T02:07:30;16.70;99.90
9640;DHT22;51745;50.872;4.732;2022-07-29T02:10:22;16.60;99.90
9640;DHT22;51745;50.872;4.732;2022-07-29T02:13:11;16.70;99.90
9640;DHT22;51745;50.872;4.732;2022-07-29T02:16:00;16.70;99.90
9640;DHT22;51745;50.872;4.732;2022-07-29T02:18:49;16.70;99.90
9640;DHT22;51745;50.872;4.732;2022-07-29T02:21:39;16.70;99.90
9640;DHT22;51745;50.872;4.732;2022-07-29T02:24:28;16.70;99.90
9640;DHT22;51745;50.872;4.732;2022-07-29T02:27:17;14.60;99.90
9640;DHT22;51745;50.872;4.732;2022-07-29T02:30:07;16.70;99.90
9640;DHT22;51745;50.872;4.732;2022-07-29T02:32:56;16.70;99.90
9640;DHT22;51745;50.872;4.732;2022-07-29T02:35:47;16.70;99.90
9640;DHT22;51745;50.872;4.732;2022-07-29T02:38:37;16.70;99.90
9640;DHT22;51745;50.872;4.732;2022-07-29T02:41:40;16.60;99.90
9640;DHT22;51745;50.872;4.732;2022-07-29T02:44:28;16.60;99.90
9640;DHT22;51745;50.872;4.732;2022-07-29T02:47:21;16.60;99.90
9640;DHT22;51745;50.872;4.732;2022-07-29T02:50:12;16.60;99.90
9640;DHT22;51745;50.872;4.732;2022-07-29T02:53:00;16.50;99.90
9640;DHT22;51745;50.872;4.732;2022-07-29T02:55:52;16.40;99.90
9640;DHT22;51745;50.872;4.732;2022-07-29T02:58:45;16.30;99.90
9640;DHT22;51745;50.872;4.732;2022-07-29T03:01:34;16.20;99.90
9640;DHT22;51745;50.872;4.732;2022-07-29T03:04:23;16.10;99.90
9640;DHT22;51745;50.872;4.732;2022-07-29T03:07:13;16.00;99.90
9640;DHT22;51745;50.872;4.732;2022-07-29T03:10:02;15.90;99.90
9640;DHT22;51745;50.872;4.732;2022-07-29T03:12:59;15.90;99.90
9640;DHT22;51745;50.872;4.732;2022-07-29T03:15:48;15.90;99.90
9640;DHT22;51745;50.872;4.732;2022-07-29T03:18:37;15.70;99.90
9640;DHT22;51745;50.872;4.732;2022-07-29T03:21:24;15.70;99.90
9640;DHT22;51745;50.872;4.732;2022-07-29T03:24:23;15.60;99.90
9640;DHT22;51745;50.872;4.732;2022-07-29T03:27:12;15.60;99.90
9640;DHT22;51745;50.872;4.732;2022-07-29T03:30:01;14.50;99.90
9640;DHT22;51745;50.872;4.732;2022-07-29T03:32:53;15.60;99.90
9640;DHT22;51745;50.872;4.732;2022-07-29T03:35:44;15.60;99.90
9640;DHT22;51745;50.872;4.732;2022-07-29T03:38:33;15.50;99.90
9640;DHT22;51745;50.872;4.732;2022-07-29T03:41:21;15.50;99.90
9640;DHT22;51745;50.872;4.732;2022-07-29T03:44:10;15.30;99.90
9640;DHT22;51745;50.872;4.732;2022-07-29T03:47:00;15.40;99.90
9640;DHT22;51745;50.872;4.732;2022-07-29T03:49:49;15.30;99.90
9640;DHT22;51745;50.872;4.732;2022-07-29T03:52:43;15.30;99.90
9640;DHT22;51745;50.872;4.732;2022-07-29T03:55:32;15.20;99.90
9640;DHT22;51745;50.872;4.732;2022-07-29T03:58:23;15.30;99.90
9640;DHT22;51745;50.872;4.732;2022-07-29T04:01:13;15.20;99.90
9640;DHT22;51745;50.872;4.732;2022-07-29T04:04:05;15.10;99.90
9640;DHT22;51745;50.872;4.732;2022-07-29T04:06:52;15.10;99.90
9640;DHT22;51745;50.872;4.732;2022-07-29T04:09:41;15.00;99.90
9640;DHT22;51745;50.872;4.732;2022-07-29T04:12:29;15.10;99.90
9640;DHT22;51745;50.872;4.732;2022-07-29T04:15:17;15.00;99.90
9640;DHT22;51745;50.872;4.732;2022-07-29T04:18:05;14.90;99.90
9640;DHT22;51745;50.872;4.732;2022-07-29T04:20:55;14.90;99.90
9640;DHT22;51745;50.872;4.732;2022-07-29T04:23:45;14.90;99.90
9640;DHT22;51745;50.872;4.732;2022-07-29T04:26:39;14.90;99.90
9640;DHT22;51745;50.872;4.732;2022-07-29T04:29:26;14.80;99.90
9640;DHT22;51745;50.872;4.732;2022-07-29T04:32:16;14.90;99.90
9640;DHT22;51745;50.872;4.732;2022-07-29T04:35:05;14.90;99.90
9640;DHT22;51745;50.872;4.732;2022-07-29T04:37:54;14.90;99.90
9640;DHT22;51745;50.872;4.732;2022-07-29T04:40:41;14.90;99.90
9640;DHT22;51745;50.872;4.732;2022-07-29T04:43:29;14.80;99.90
9640;DHT22;51745;50.872;4.732;2022-07-29T04:46:21;14.80;99.90
9640;DHT22;51745;50.872;4.732;2022-07-29T04:49:09;14.80;99.90
9640;DHT22;51745;50.872;4.732;2022-07-29T04:51:57;14.90;99.90
9640;DHT22;51745;50.872;4.732;2022-07-29T04:54:46;14.80;99.90
9640;DHT22;51745;50.872;4.732;2022-07-29T04:57:34;14.90;99.90
9640;DHT22;51745;50.872;4.732;2022-07-29T05:00:22;14.90;99.90
9640;DHT22;51745;50.872;4.732;2022-07-29T05:03:18;14.80;99.90
9640;DHT22;51745;50.872;4.732;2022-07-29T05:06:06;14.90;99.90
9640;DHT22;51745;50.872;4.732;2022-07-29T05:08:53;15.00;99.90
9640;DHT22;51745;50.872;4.732;2022-07-29T05:11:43;15.10;99.90
9640;DHT22;51745;50.872;4.732;2022-07-29T05:14:30;15.20;99.90
9640;DHT22;51745;50.872;4.732;2022-07-29T05:17:19;15.20;99.90
9640;DHT22;51745;50.872;4.732;2022-07-29T05:20:07;15.20;99.90
9640;DHT22;51745;50.872;4.732;2022-07-29T05:22:54;15.20;99.90
9640;DHT22;51745;50.872;4.732;2022-07-29T05:25:42;15.40;99.90
9640;DHT22;51745;50.872;4.732;2022-07-29T05:28:34;15.30;99.90
9640;DHT22;51745;50.872;4.732;2022-07-29T05:31:22;15.40;99.90
9640;DHT22;51745;50.872;4.732;2022-07-29T05:34:11;15.40;99.90
9640;DHT22;51745;50.872;4.732;2022-07-29T05:36:59;15.70;99.90
9640;DHT22;51745;50.872;4.732;2022-07-29T05:39:46;15.80;99.90
9640;DHT22;51745;50.872;4.732;2022-07-29T05:42:45;15.80;99.90
9640;DHT22;51745;50.872;4.732;2022-07-29T05:45:35;15.90;99.90
9640;DHT22;51745;50.872;4.732;2022-07-29T05:48:34;16.00;99.90
9640;DHT22;51745;50.872;4.732;2022-07-29T05:51:22;15.90;99.90
9640;DHT22;51745;50.872;4.732;2022-07-29T05:54:09;16.00;99.90
9640;DHT22;51745;50.872;4.732;2022-07-29T05:56:57;17.00;99.90
9640;DHT22;51745;50.872;4.732;2022-07-29T05:59:46;16.00;99.90
9640;DHT22;51745;50.872;4.732;2022-07-29T06:02:35;16.20;99.90
9640;DHT22;51745;50.872;4.732;2022-07-29T06:05:23;16.20;99.90
9640;DHT22;51745;50.872;4.732;2022-07-29T06:08:11;16.40;99.90
9640;DHT22;51745;50.872;4.732;2022-07-29T06:10:58;16.60;99.90
9640;DHT22;51745;50.872;4.732;2022-07-29T06:13:47;17.00;99.90
9640;DHT22;51745;50.872;4.732;2022-07-29T06:16:36;16.70;99.90
9640;DHT22;51745;50.872;4.732;2022-07-29T06:19:25;16.10;99.90
9640;DHT22;51745;50.872;4.732;2022-07-29T06:22:14;16.90;99.90
9640;DHT22;51745;50.872;4.732;2022-07-29T06:25:03;16.90;99.90
9640;DHT22;51745;50.872;4.732;2022-07-29T06:27:51;18.10;99.90
9640;DHT22;51745;50.872;4.732;2022-07-29T06:30:41;17.20;99.90
9640;DHT22;51745;50.872;4.732;2022-07-29T06:33:29;16.90;99.90
9640;DHT22;51745;50.872;4.732;2022-07-29T06:36:18;16.90;99.90
9640;DHT22;51745;50.872;4.732;2022-07-29T06:39:07;16.90;99.90
9640;DHT22;51745;50.872;4.732;2022-07-29T06:41:57;16.90;99.90
9640;DHT22;51745;50.872;4.732;2022-07-29T06:44:45;17.60;99.90
9640;DHT22;51745;50.872;4.732;2022-07-29T06:47:32;17.00;99.90
9640;DHT22;51745;50.872;4.732;2022-07-29T06:50:20;16.90;99.90
9640;DHT22;51745;50.872;4.732;2022-07-29T06:53:09;17.00;99.90
9640;DHT22;51745;50.872;4.732;2022-07-29T06:55:58;17.10;99.90
9640;DHT22;51745;50.872;4.732;2022-07-29T06:58:48;17.50;99.90
9640;DHT22;51745;50.872;4.732;2022-07-29T07:01:39;17.20;99.90
9640;DHT22;51745;50.872;4.732;2022-07-29T07:04:27;17.20;99.90
9640;DHT22;51745;50.872;4.732;2022-07-29T07:07:15;17.20;99.90
9640;DHT22;51745;50.872;4.732;2022-07-29T07:10:04;17.20;99.90
9640;DHT22;51745;50.872;4.732;2022-07-29T07:12:52;17.20;99.90
9640;DHT22;51745;50.872;4.732;2022-07-29T07:15:40;17.30;99.90
9640;DHT22;51745;50.872;4.732;2022-07-29T07:18:28;17.60;99.90
9640;DHT22;51745;50.872;4.732;2022-07-29T07:21:16;17.50;99.90
9640;DHT22;51745;50.872;4.732;2022-07-29T07:24:05;17.50;99.90
9640;DHT22;51745;50.872;4.732;2022-07-29T07:26:54;17.60;99.90
9640;DHT22;51745;50.872;4.732;2022-07-29T07:29:43;17.70;99.90
9640;DHT22;51745;50.872;4.732;2022-07-29T07:32:30;17.70;99.90
9640;DHT22;51745;50.872;4.732;2022-07-29T07:35:18;17.80;99.90
9640;DHT22;51745;50.872;4.732;2022-07-29T07:38:06;17.80;99.90
9640;DHT22;51745;50.872;4.732;2022-07-29T07:40:54;17.90;99.90
9640;DHT22;51745;50.872;4.732;2022-07-29T07:43:43;18.00;99.90
9640;DHT22;51745;50.872;4.732;2022-07-29T07:46:30;18.10;99.90
9640;DHT22;51745;50.872;4.732;2022-07-29T07:49:18;18.10;99.90
9640;DHT22;51745;50.872;4.732;2022-07-29T07:52:06;18.20;99.90
9640;DHT22;51745;50.872;4.732;2022-07-29T07:54:53;18.20;99.90
9640;DHT22;51745;50.872;4.732;2022-07-29T07:57:41;18.30;99.90
9640;DHT22;51745;50.872;4.732;2022-07-29T08:00:31;18.40;99.90
9640;DHT22;51745;50.872;4.732;2022-07-29T08:03:19;18.50;99.90
9640;DHT22;51745;50.872;4.732;2022-07-29T08:06:07;18.50;99.90
9640;DHT22;51745;50.872;4.732;2022-07-29T08:08:55;18.70;99.90
9640;DHT22;51745;50.872;4.732;2022-07-29T08:12:03;18.80;99.90
9640;DHT22;51745;50.872;4.732;2022-07-29T08:14:51;19.40;99.90
9640;DHT22;51745;50.872;4.732;2022-07-29T08:17:41;19.10;99.90
9640;DHT22;51745;50.872;4.732;2022-07-29T08:20:28;19.00;99.90
9640;DHT22;51745;50.872;4.732;2022-07-29T08:23:17;19.10;99.90
9640;DHT22;51745;50.872;4.732;2022-07-29T08:26:06;19.20;99.90
9640;DHT22;51745;50.872;4.732;2022-07-29T08:28:57;19.30;99.90
9640;DHT22;51745;50.872;4.732;2022-07-29T08:31:45;19.50;99.90
9640;DHT22;51745;50.872;4.732;2022-07-29T08:34:35;19.50;99.90
9640;DHT22;51745;50.872;4.732;2022-07-29T08:37:23;19.80;99.90
9640;DHT22;51745;50.872;4.732;2022-07-29T08:40:11;19.90;99.90
9640;DHT22;51745;50.872;4.732;2022-07-29T08:43:04;20.00;99.90
9640;DHT22;51745;50.872;4.732;2022-07-29T08:45:54;20.10;99.90
9640;DHT22;51745;50.872;4.732;2022-07-29T08:48:51;20.20;99.90
9640;DHT22;51745;50.872;4.732;2022-07-29T08:51:40;20.20;99.90
9640;DHT22;51745;50.872;4.732;2022-07-29T08:54:34;20.30;99.90
9640;DHT22;51745;50.872;4.732;2022-07-29T08:57:22;20.40;99.90
9640;DHT22;51745;50.872;4.732;2022-07-29T09:00:13;20.40;99.90
9640;DHT22;51745;50.872;4.732;2022-07-29T09:03:04;20.30;99.90
9640;DHT22;51745;50.872;4.732;2022-07-29T09:05:55;20.50;99.90
9640;DHT22;51745;50.872;4.732;2022-07-29T09:08:45;20.50;99.90
9640;DHT22;51745;50.872;4.732;2022-07-29T09:11:40;20.60;99.90
9640;DHT22;51745;50.872;4.732;2022-07-29T09:14:28;20.70;99.90
9640;DHT22;51745;50.872;4.732;2022-07-29T09:17:15;20.80;99.90
9640;DHT22;51745;50.872;4.732;2022-07-29T09:20:08;20.80;99.90
9640;DHT22;51745;50.872;4.732;2022-07-29T09:23:07;21.00;99.90
9640;DHT22;51745;50.872;4.732;2022-07-29T09:25:57;21.20;99.90
9640;DHT22;51745;50.872;4.732;2022-07-29T09:28:54;21.30;99.90
9640;DHT22;51745;50.872;4.732;2022-07-29T09:31:43;21.40;99.90
9640;DHT22;51745;50.872;4.732;2022-07-29T09:34:30;21.50;99.90
9640;DHT22;51745;50.872;4.732;2022-07-29T09:37:25;21.60;99.90
9640;DHT22;51745;50.872;4.732;2022-07-29T09:40:14;19.90;99.90
9640;DHT22;51745;50.872;4.732;2022-07-29T09:43:14;21.70;99.90
9640;DHT22;51745;50.872;4.732;2022-07-29T09:46:10;21.80;99.90
9640;DHT22;51745;50.872;4.732;2022-07-29T09:49:06;21.80;99.90
9640;DHT22;51745;50.872;4.732;2022-07-29T09:52:03;22.20;99.90
9640;DHT22;51745;50.872;4.732;2022-07-29T09:54:52;22.00;99.90
9640;DHT22;51745;50.872;4.732;2022-07-29T09:57:46;22.20;99.90
9640;DHT22;51745;50.872;4.732;2022-07-29T10:00:37;21.80;99.90
9640;DHT22;51745;50.872;4.732;2022-07-29T10:03:30;22.50;99.90
9640;DHT22;51745;50.872;4.732;2022-07-29T10:06:17;22.90;99.90
9640;DHT22;51745;50.872;4.732;2022-07-29T10:09:08;22.50;99.90
9640;DHT22;51745;50.872;4.732;2022-07-29T10:12:07;22.60;99.90
9640;DHT22;51745;50.872;4.732;2022-07-29T10:14:56;22.80;99.90
9640;DHT22;51745;50.872;4.732;2022-07-29T10:17:46;22.90;99.90
9640;DHT22;51745;50.872;4.732;2022-07-29T10:20:34;23.10;99.90
9640;DHT22;51745;50.872;4.732;2022-07-29T10:23:24;23.20;99.90
9640;DHT22;51745;50.872;4.732;2022-07-29T10:26:13;23.50;99.90
9640;DHT22;51745;50.872;4.732;2022-07-29T10:29:06;23.60;99.90
9640;DHT22;51745;50.872;4.732;2022-07-29T10:32:08;23.40;99.90
9640;DHT22;51745;50.872;4.732;2022-07-29T10:35:06;23.60;99.90
9640;DHT22;51745;50.872;4.732;2022-07-29T10:38:07;23.50;99.90
9640;DHT22;51745;50.872;4.732;2022-07-29T10:41:06;23.40;99.90
9640;DHT22;51745;50.872;4.732;2022-07-29T10:44:21;23.60;99.90
9640;DHT22;51745;50.872;4.732;2022-07-29T10:47:19;23.80;99.90
9640;DHT22;51745;50.872;4.732;2022-07-29T10:50:09;23.80;99.90
9640;DHT22;51745;50.872;4.732;2022-07-29T10:53:02;23.80;99.90
9640;DHT22;51745;50.872;4.732;2022-07-29T10:55:54;24.00;99.90
9640;DHT22;51745;50.872;4.732;2022-07-29T10:58:43;24.00;99.90
9640;DHT22;51745;50.872;4.732;2022-07-29T11:01:38;25.40;99.90
9640;DHT22;51745;50.872;4.732;2022-07-29T11:10:49;23.70;99.90
9640;DHT22;51745;50.872;4.732;2022-07-29T11:13:49;24.40;99.90
9640;DHT22;51745;50.872;4.732;2022-07-29T11:16:58;24.50;99.90
9640;DHT22;51745;50.872;4.732;2022-07-29T11:19:47;24.30;99.90
9640;DHT22;51745;50.872;4.732;2022-07-29T11:22:37;24.40;99.90
9640;DHT22;51745;50.872;4.732;2022-07-29T11:25:32;24.50;99.90
9640;DHT22;51745;50.872;4.732;2022-07-29T11:28:37;24.70;99.90
9640;DHT22;51745;50.872;4.732;2022-07-29T11:31:32;24.80;99.90
9640;DHT22;51745;50.872;4.732;2022-07-29T11:34:21;23.50;99.90
9640;DHT22;51745;50.872;4.732;2022-07-29T11:37:15;25.10;99.90
9640;DHT22;51745;50.872;4.732;2022-07-29T11:40:08;25.10;99.90
9640;DHT22;51745;50.872;4.732;2022-07-29T11:42:59;25.00;99.90
9640;DHT22;51745;50.872;4.732;2022-07-29T11:45:55;25.20;99.90
9640;DHT22;51745;50.872;4.732;2022-07-29T11:48:50;25.40;99.90
9640;DHT22;51745;50.872;4.732;2022-07-29T11:51:38;25.30;99.90
9640;DHT22;51745;50.872;4.732;2022-07-29T11:54:43;25.40;99.90
9640;DHT22;51745;50.872;4.732;2022-07-29T11:57:47;24.90;99.90
9640;DHT22;51745;50.872;4.732;2022-07-29T12:00:50;24.80;99.90
9640;DHT22;51745;50.872;4.732;2022-07-29T12:03:42;24.40;99.90
9640;DHT22;51745;50.872;4.732;2022-07-29T12:06:30;24.10;99.90
9640;DHT22;51745;50.872;4.732;2022-07-29T12:09:18;24.10;99.90
9640;DHT22;51745;50.872;4.732;2022-07-29T12:12:06;24.20;99.90
9640;DHT22;51745;50.872;4.732;2022-07-29T12:14:53;24.20;99.90
9640;DHT22;51745;50.872;4.732;2022-07-29T12:17:41;24.50;99.90
9640;DHT22;51745;50.872;4.732;2022-07-29T12:20:31;25.10;99.90
9640;DHT22;51745;50.872;4.732;2022-07-29T12:23:19;25.50;99.90
9640;DHT22;51745;50.872;4.732;2022-07-29T12:26:08;25.40;99.90
9640;DHT22;51745;50.872;4.732;2022-07-29T12:29:14;25.40;99.90
9640;DHT22;51745;50.872;4.732;2022-07-29T12:32:18;25.60;99.90
9640;DHT22;51745;50.872;4.732;2022-07-29T12:35:07;25.80;99.90
9640;DHT22;51745;50.872;4.732;2022-07-29T12:38:00;26.10;99.90
9640;DHT22;51745;50.872;4.732;2022-07-29T12:40:58;26.10;99.90
9640;DHT22;51745;50.872;4.732;2022-07-29T12:43:56;26.30;99.90
9640;DHT22;51745;50.872;4.732;2022-07-29T12:46:43;26.50;99.90
9640;DHT22;51745;50.872;4.732;2022-07-29T12:49:33;26.30;99.90
9640;DHT22;51745;50.872;4.732;2022-07-29T12:52:23;26.20;99.90
9640;DHT22;51745;50.872;4.732;2022-07-29T12:58:32;26.10;99.90
9640;DHT22;51745;50.872;4.732;2022-07-29T13:01:20;26.20;99.90
9640;DHT22;51745;50.872;4.732;2022-07-29T13:04:09;26.60;99.90
9640;DHT22;51745;50.872;4.732;2022-07-29T13:07:00;26.70;99.90
9640;DHT22;51745;50.872;4.732;2022-07-29T13:09:52;26.70;99.90
9640;DHT22;51745;50.872;4.732;2022-07-29T13:16:05;26.70;99.90
9640;DHT22;51745;50.872;4.732;2022-07-29T13:19:04;26.80;99.90
9640;DHT22;51745;50.872;4.732;2022-07-29T13:21:53;26.60;99.90
9640;DHT22;51745;50.872;4.732;2022-07-29T13:24:50;26.70;99.90
9640;DHT22;51745;50.872;4.732;2022-07-29T13:27:39;26.50;99.90
9640;DHT22;51745;50.872;4.732;2022-07-29T13:30:27;26.70;99.90
9640;DHT22;51745;50.872;4.732;2022-07-29T13:33:18;26.80;99.90
9640;DHT22;51745;50.872;4.732;2022-07-29T13:36:08;28.20;99.10
9640;DHT22;51745;50.872;4.732;2022-07-29T13:38:56;26.80;99.10
9640;DHT22;51745;50.872;4.732;2022-07-29T13:41:44;26.80;98.60
9640;DHT22;51745;50.872;4.732;2022-07-29T13:44:35;26.90;98.80
9640;DHT22;51745;50.872;4.732;2022-07-29T13:47:24;26.40;98.30
9640;DHT22;51745;50.872;4.732;2022-07-29T13:50:19;26.00;99.20
9640;DHT22;51745;50.872;4.732;2022-07-29T13:53:07;25.90;99.30
9640;DHT22;51745;50.872;4.732;2022-07-29T13:56:02;26.10;99.90
9640;DHT22;51745;50.872;4.732;2022-07-29T13:58:53;26.20;99.00
9640;DHT22;51745;50.872;4.732;2022-07-29T14:01:41;26.10;98.80
9640;DHT22;51745;50.872;4.732;2022-07-29T14:04:34;25.90;99.60
9640;DHT22;51745;50.872;4.732;2022-07-29T14:07:26;25.60;98.80
9640;DHT22;51745;50.872;4.732;2022-07-29T14:10:14;25.40;99.30
9640;DHT22;51745;50.872;4.732;2022-07-29T14:13:06;25.50;99.40
9640;DHT22;51745;50.872;4.732;2022-07-29T14:16:10;25.40;99.40
9640;DHT22;51745;50.872;4.732;2022-07-29T14:18:59;25.40;99.60
9640;DHT22;51745;50.872;4.732;2022-07-29T14:21:50;25.40;99.20
9640;DHT22;51745;50.872;4.732;2022-07-29T14:24:44;25.40;99.90
9640;DHT22;51745;50.872;4.732;2022-07-29T14:27:31;25.40;99.30
9640;DHT22;51745;50.872;4.732;2022-07-29T14:30:23;25.30;99.10
9640;DHT22;51745;50.872;4.732;2022-07-29T14:33:11;25.30;99.60
9640;DHT22;51745;50.872;4.732;2022-07-29T14:36:01;25.30;99.40
9640;DHT22;51745;50.872;4.732;2022-07-29T14:38:56;25.00;99.60
9640;DHT22;51745;50.872;4.732;2022-07-29T14:41:48;25.20;99.50
9640;DHT22;51745;50.872;4.732;2022-07-29T14:44:37;25.20;99.70
9640;DHT22;51745;50.872;4.732;2022-07-29T14:47:25;26.20;99.80
9640;DHT22;51745;50.872;4.732;2022-07-29T14:50:15;25.20;98.40
9640;DHT22;51745;50.872;4.732;2022-07-29T14:53:17;23.10;97.40
9640;DHT22;51745;50.872;4.732;2022-07-29T14:56:06;26.10;99.70
9640;DHT22;51745;50.872;4.732;2022-07-29T14:59:18;24.40;99.00
9640;DHT22;51745;50.872;4.732;2022-07-29T15:02:17;25.90;99.70
9640;DHT22;51745;50.872;4.732;2022-07-29T15:05:06;25.10;99.60
9640;DHT22;51745;50.872;4.732;2022-07-29T15:07:54;25.00;99.10
9640;DHT22;51745;50.872;4.732;2022-07-29T15:12:02;25.00;99.40
9640;DHT22;51745;50.872;4.732;2022-07-29T15:17:53;25.30;98.50
9640;DHT22;51745;50.872;4.732;2022-07-29T15:20:48;26.10;98.40
9640;DHT22;51745;50.872;4.732;2022-07-29T15:23:39;26.20;97.60
9640;DHT22;51745;50.872;4.732;2022-07-29T15:26:27;26.00;97.60
9640;DHT22;51745;50.872;4.732;2022-07-29T15:29:16;26.10;97.20
9640;DHT22;51745;50.872;4.732;2022-07-29T15:32:14;25.80;97.90
9640;DHT22;51745;50.872;4.732;2022-07-29T15:35:06;26.30;97.00
9640;DHT22;51745;50.872;4.732;2022-07-29T15:41:46;26.70;96.80
9640;DHT22;51745;50.872;4.732;2022-07-29T15:48:25;26.80;94.60
9640;DHT22;51745;50.872;4.732;2022-07-29T15:51:15;26.90;95.50
9640;DHT22;51745;50.872;4.732;2022-07-29T15:54:02;26.00;94.20
9640;DHT22;51745;50.872;4.732;2022-07-29T15:56:50;26.90;95.70
9640;DHT22;51745;50.872;4.732;2022-07-29T15:59:39;27.10;95.20
9640;DHT22;51745;50.872;4.732;2022-07-29T16:02:26;26.70;93.60
9640;DHT22;51745;50.872;4.732;2022-07-29T16:05:15;26.50;94.90
9640;DHT22;51745;50.872;4.732;2022-07-29T16:08:07;26.40;94.40
9640;DHT22;51745;50.872;4.732;2022-07-29T16:10:55;26.50;94.30
9640;DHT22;51745;50.872;4.732;2022-07-29T16:13:44;25.30;94.00
9640;DHT22;51745;50.872;4.732;2022-07-29T16:16:36;26.40;93.80
9640;DHT22;51745;50.872;4.732;2022-07-29T16:19:25;26.40;94.50
9640;DHT22;51745;50.872;4.732;2022-07-29T16:22:14;26.40;93.70
9640;DHT22;51745;50.872;4.732;2022-07-29T16:25:05;26.60;94.00
9640;DHT22;51745;50.872;4.732;2022-07-29T16:27:53;26.30;94.60
9640;DHT22;51745;50.872;4.732;2022-07-29T16:30:45;26.30;95.40
9640;DHT22;51745;50.872;4.732;2022-07-29T16:33:33;26.30;95.20
9640;DHT22;51745;50.872;4.732;2022-07-29T16:36:40;26.40;94.70
9640;DHT22;51745;50.872;4.732;2022-07-29T16:39:32;26.50;94.40
9640;DHT22;51745;50.872;4.732;2022-07-29T16:42:24;26.60;94.00
9640;DHT22;51745;50.872;4.732;2022-07-29T16:45:32;26.80;92.90
9640;DHT22;51745;50.872;4.732;2022-07-29T16:48:31;26.80;91.90
9640;DHT22;51745;50.872;4.732;2022-07-29T16:51:52;26.50;93.10
9640;DHT22;51745;50.872;4.732;2022-07-29T16:54:40;26.40;92.40
9640;DHT22;51745;50.872;4.732;2022-07-29T16:57:31;26.40;93.10
9640;DHT22;51745;50.872;4.732;2022-07-29T17:00:19;26.50;92.80
9640;DHT22;51745;50.872;4.732;2022-07-29T17:03:08;26.40;92.60
9640;DHT22;51745;50.872;4.732;2022-07-29T17:05:58;26.30;93.00
9640;DHT22;51745;50.872;4.732;2022-07-29T17:08:47;26.30;93.20
9640;DHT22;51745;50.872;4.732;2022-07-29T17:11:34;26.30;93.80
9640;DHT22;51745;50.872;4.732;2022-07-29T17:14:41;26.30;93.60
9640;DHT22;51745;50.872;4.732;2022-07-29T17:17:29;26.30;93.60
9640;DHT22;51745;50.872;4.732;2022-07-29T17:20:38;26.30;93.70
9640;DHT22;51745;50.872;4.732;2022-07-29T17:23:29;26.00;94.30
9640;DHT22;51745;50.872;4.732;2022-07-29T17:26:23;25.90;94.20
9640;DHT22;51745;50.872;4.732;2022-07-29T17:29:22;26.00;94.10
9640;DHT22;51745;50.872;4.732;2022-07-29T17:32:14;25.80;94.10
9640;DHT22;51745;50.872;4.732;2022-07-29T17:35:02;25.80;93.70
9640;DHT22;51745;50.872;4.732;2022-07-29T17:38:09;25.60;94.00
9640;DHT22;51745;50.872;4.732;2022-07-29T17:40:58;25.60;94.80
9640;DHT22;51745;50.872;4.732;2022-07-29T17:43:55;26.20;95.50
9640;DHT22;51745;50.872;4.732;2022-07-29T17:46:43;25.60;94.70
9640;DHT22;51745;50.872;4.732;2022-07-29T17:49:32;25.40;94.30
9640;DHT22;51745;50.872;4.732;2022-07-29T17:52:22;25.50;94.30
9640;DHT22;51745;50.872;4.732;2022-07-29T17:55:10;25.50;94.90
9640;DHT22;51745;50.872;4.732;2022-07-29T17:58:03;25.30;94.90
9640;DHT22;51745;50.872;4.732;2022-07-29T18:00:57;25.30;95.20
9640;DHT22;51745;50.872;4.732;2022-07-29T18:03:45;25.20;95.20
9640;DHT22;51745;50.872;4.732;2022-07-29T18:06:35;25.20;95.90
9640;DHT22;51745;50.872;4.732;2022-07-29T18:09:31;25.20;95.60
9640;DHT22;51745;50.872;4.732;2022-07-29T18:12:18;25.10;95.90
9640;DHT22;51745;50.872;4.732;2022-07-29T18:15:09;25.10;95.80
9640;DHT22;51745;50.872;4.732;2022-07-29T18:17:57;25.00;95.80
9640;DHT22;51745;50.872;4.732;2022-07-29T18:20:48;24.90;96.10
9640;DHT22;51745;50.872;4.732;2022-07-29T18:23:37;24.60;96.70
9640;DHT22;51745;50.872;4.732;2022-07-29T18:26:26;24.40;97.30
9640;DHT22;51745;50.872;4.732;2022-07-29T18:29:16;24.00;97.90
9640;DHT22;51745;50.872;4.732;2022-07-29T18:32:10;23.70;98.30
9640;DHT22;51745;50.872;4.732;2022-07-29T18:34:59;24.10;98.80
9640;DHT22;51745;50.872;4.732;2022-07-29T18:37:50;23.80;98.90
9640;DHT22;51745;50.872;4.732;2022-07-29T18:40:51;23.50;98.70
9640;DHT22;51745;50.872;4.732;2022-07-29T18:43:45;23.40;98.80